sensor_id;sensor_type;location;lat;lon;timestamp;temperature;humidity
3256;DHT22;1640;48.504;9.224;2023-07-24T00:00:39;21.20;71.50
3256;DHT22;1640;48.504;9.224;2023-07-24T00:03:07;21.10;71.60
3256;DHT22;1640;48.504;9.224;2023-07-24T00:05:34;21.10;71.80
3256;DHT22;1640;48.504;9.224;2023-07-24T00:08:04;21.10;72.10
3256;DHT22;1640;48.504;9.224;2023-07-24T00:10:32;21.10;72.10
3256;DHT22;1640;48.504;9.224;2023-07-24T00:13:00;21.00;72.10
3256;DHT22;1640;48.504;9.224;2023-07-24T00:15:29;21.00;72.10
3256;DHT22;1640;48.504;9.224;2023-07-24T00:17:56;20.80;72.30
3256;DHT22;1640;48.504;9.224;2023-07-24T00:20:24;20.70;72.30
3256;DHT22;1640;48.504;9.224;2023-07-24T00:22:52;20.70;72.20
3256;DHT22;1640;48.504;9.224;2023-07-24T00:25:21;20.50;72.10
3256;DHT22;1640;48.504;9.224;2023-07-24T00:27:48;20.50;72.20
3256;DHT22;1640;48.504;9.224;2023-07-24T00:30:16;20.40;72.20
3256;DHT22;1640;48.504;9.224;2023-07-24T00:32:43;20.30;71.60
3256;DHT22;1640;48.504;9.224;2023-07-24T00:35:11;20.10;70.90
3256;DHT22;1640;48.504;9.224;2023-07-24T00:37:38;20.00;70.20
3256;DHT22;1640;48.504;9.224;2023-07-24T00:40:07;19.90;69.50
3256;DHT22;1640;48.504;9.224;2023-07-24T00:42:36;19.80;68.20
3256;DHT22;1640;48.504;9.224;2023-07-24T00:45:04;19.70;66.90
3256;DHT22;1640;48.504;9.224;2023-07-24T00:47:32;19.60;64.30
3256;DHT22;1640;48.504;9.224;2023-07-24T00:50:00;19.50;64.70
3256;DHT22;1640;48.504;9.224;2023-07-24T00:52:27;19.50;65.00
3256;DHT22;1640;48.504;9.224;2023-07-24T00:54:55;19.50;65.20
3256;DHT22;1640;48.504;9.224;2023-07-24T00:57:23;19.40;65.90
3256;DHT22;1640;48.504;9.224;2023-07-24T00:59:52;19.40;65.90
3256;DHT22;1640;48.504;9.224;2023-07-24T01:02:20;19.40;68.50
3256;DHT22;1640;48.504;9.224;2023-07-24T01:04:48;19.30;68.90
3256;DHT22;1640;48.504;9.224;2023-07-24T01:07:15;19.30;68.60
3256;DHT22;1640;48.504;9.224;2023-07-24T01:09:43;19.40;69.20
3256;DHT22;1640;48.504;9.224;2023-07-24T01:12:19;19.30;68.90
3256;DHT22;1640;48.504;9.224;2023-07-24T01:14:54;19.30;68.80
3256;DHT22;1640;48.504;9.224;2023-07-24T01:17:24;19.30;68.50
3256;DHT22;1640;48.504;9.224;2023-07-24T01:19:55;19.30;69.00
3256;DHT22;1640;48.504;9.224;2023-07-24T01:22:31;19.20;68.90
3256;DHT22;1640;48.504;9.224;2023-07-24T01:25:05;19.20;68.60
3256;DHT22;1640;48.504;9.224;2023-07-24T01:27:41;19.10;67.60
3256;DHT22;1640;48.504;9.224;2023-07-24T01:30:09;19.10;67.80
3256;DHT22;1640;48.504;9.224;2023-07-24T01:32:37;19.10;67.00
3256;DHT22;1640;48.504;9.224;2023-07-24T01:35:05;19.10;67.50
3256;DHT22;1640;48.504;9.224;2023-07-24T01:37:34;19.10;67.50
3256;DHT22;1640;48.504;9.224;2023-07-24T01:40:06;19.00;67.20
3256;DHT22;1640;48.504;9.224;2023-07-24T01:42:35;18.90;66.30
3256;DHT22;1640;48.504;9.224;2023-07-24T01:45:05;19.00;65.70
3256;DHT22;1640;48.504;9.224;2023-07-24T01:47:33;19.00;65.20
3256;DHT22;1640;48.504;9.224;2023-07-24T01:50:00;19.10;64.90
3256;DHT22;1640;48.504;9.224;2023-07-24T01:52:28;19.20;65.20
3256;DHT22;1640;48.504;9.224;2023-07-24T01:54:55;19.20;65.70
3256;DHT22;1640;48.504;9.224;2023-07-24T01:57:23;19.30;65.60
3256;DHT22;1640;48.504;9.224;2023-07-24T01:59:50;19.40;65.90
3256;DHT22;1640;48.504;9.224;2023-07-24T02:02:19;19.40;66.00
3256;DHT22;1640;48.504;9.224;2023-07-24T02:04:47;19.40;65.20
3256;DHT22;1640;48.504;9.224;2023-07-24T02:07:14;19.30;64.60
3256;DHT22;1640;48.504;9.224;2023-07-24T02:09:42;19.30;63.70
3256;DHT22;1640;48.504;9.224;2023-07-24T02:12:09;19.20;63.00
3256;DHT22;1640;48.504;9.224;2023-07-24T02:14:37;19.10;63.30
3256;DHT22;1640;48.504;9.224;2023-07-24T02:17:04;19.10;62.70
3256;DHT22;1640;48.504;9.224;2023-07-24T02:19:33;19.00;61.40
3256;DHT22;1640;48.504;9.224;2023-07-24T02:22:01;18.90;59.70
3256;DHT22;1640;48.504;9.224;2023-07-24T02:24:28;18.90;58.50
3256;DHT22;1640;48.504;9.224;2023-07-24T02:26:56;18.90;58.00
3256;DHT22;1640;48.504;9.224;2023-07-24T02:29:23;18.80;56.60
3256;DHT22;1640;48.504;9.224;2023-07-24T02:31:51;18.70;55.60
3256;DHT22;1640;48.504;9.224;2023-07-24T02:34:18;18.60;53.10
3256;DHT22;1640;48.504;9.224;2023-07-24T02:36:52;18.50;52.10
3256;DHT22;1640;48.504;9.224;2023-07-24T02:39:20;18.50;50.90
3256;DHT22;1640;48.504;9.224;2023-07-24T02:41:48;18.40;49.80
3256;DHT22;1640;48.504;9.224;2023-07-24T02:44:15;18.40;49.00
3256;DHT22;1640;48.504;9.224;2023-07-24T02:46:43;18.30;48.30
3256;DHT22;1640;48.504;9.224;2023-07-24T02:49:10;18.30;46.40
3256;DHT22;1640;48.504;9.224;2023-07-24T02:51:38;18.30;46.30
3256;DHT22;1640;48.504;9.224;2023-07-24T02:54:07;18.20;45.20
3256;DHT22;1640;48.504;9.224;2023-07-24T02:56:34;18.10;44.00
3256;DHT22;1640;48.504;9.224;2023-07-24T02:59:01;18.10;43.40
3256;DHT22;1640;48.504;9.224;2023-07-24T03:01:29;18.00;41.30
3256;DHT22;1640;48.504;9.224;2023-07-24T03:03:56;18.00;39.40
3256;DHT22;1640;48.504;9.224;2023-07-24T03:06:25;18.00;39.10
3256;DHT22;1640;48.504;9.224;2023-07-24T03:08:52;18.00;41.90
3256;DHT22;1640;48.504;9.224;2023-07-24T03:11:21;17.90;39.40
3256;DHT22;1640;48.504;9.224;2023-07-24T03:13:49;17.90;39.50
3256;DHT22;1640;48.504;9.224;2023-07-24T03:16:16;17.90;39.00
3256;DHT22;1640;48.504;9.224;2023-07-24T03:18:45;17.90;37.60
3256;DHT22;1640;48.504;9.224;2023-07-24T03:21:13;17.80;38.00
3256;DHT22;1640;48.504;9.224;2023-07-24T03:23:40;17.80;37.60
3256;DHT22;1640;48.504;9.224;2023-07-24T03:26:07;17.70;35.40
3256;DHT22;1640;48.504;9.224;2023-07-24T03:28:36;17.70;33.70
3256;DHT22;1640;48.504;9.224;2023-07-24T03:31:04;17.70;32.60
3256;DHT22;1640;48.504;9.224;2023-07-24T03:33:31;17.70;30.90
3256;DHT22;1640;48.504;9.224;2023-07-24T03:35:59;17.60;30.10
3256;DHT22;1640;48.504;9.224;2023-07-24T03:38:26;17.60;28.90
3256;DHT22;1640;48.504;9.224;2023-07-24T03:40:54;17.50;28.40
3256;DHT22;1640;48.504;9.224;2023-07-24T03:43:22;17.50;26.70
3256;DHT22;1640;48.504;9.224;2023-07-24T03:45:50;17.50;26.50
3256;DHT22;1640;48.504;9.224;2023-07-24T03:48:18;17.50;25.00
3256;DHT22;1640;48.504;9.224;2023-07-24T03:50:45;17.50;24.90
3256;DHT22;1640;48.504;9.224;2023-07-24T03:53:13;17.60;25.10
3256;DHT22;1640;48.504;9.224;2023-07-24T03:55:40;17.80;27.90
3256;DHT22;1640;48.504;9.224;2023-07-24T03:58:08;17.90;29.40
3256;DHT22;1640;48.504;9.224;2023-07-24T04:00:35;18.00;28.00
3256;DHT22;1640;48.504;9.224;2023-07-24T04:03:04;18.10;27.70
3256;DHT22;1640;48.504;9.224;2023-07-24T04:05:32;18.20;28.00
3256;DHT22;1640;48.504;9.224;2023-07-24T04:08:01;18.30;28.60
3256;DHT22;1640;48.504;9.224;2023-07-24T04:10:28;18.30;28.50
3256;DHT22;1640;48.504;9.224;2023-07-24T04:12:57;18.40;29.10
3256;DHT22;1640;48.504;9.224;2023-07-24T04:15:24;18.50;31.40
3256;DHT22;1640;48.504;9.224;2023-07-24T04:17:52;18.60;32.60
3256;DHT22;1640;48.504;9.224;2023-07-24T04:20:21;18.60;34.10
3256;DHT22;1640;48.504;9.224;2023-07-24T04:22:48;18.70;36.50
3256;DHT22;1640;48.504;9.224;2023-07-24T04:25:16;18.80;36.90
3256;DHT22;1640;48.504;9.224;2023-07-24T04:27:43;18.90;38.30
3256;DHT22;1640;48.504;9.224;2023-07-24T04:30:11;19.00;41.00
3256;DHT22;1640;48.504;9.224;2023-07-24T04:32:38;19.10;39.90
3256;DHT22;1640;48.504;9.224;2023-07-24T04:35:07;19.20;42.10
3256;DHT22;1640;48.504;9.224;2023-07-24T04:37:36;19.30;43.00
3256;DHT22;1640;48.504;9.224;2023-07-24T04:40:04;19.40;45.90
3256;DHT22;1640;48.504;9.224;2023-07-24T04:42:32;19.50;45.50
3256;DHT22;1640;48.504;9.224;2023-07-24T04:45:00;19.60;46.30
3256;DHT22;1640;48.504;9.224;2023-07-24T04:47:27;19.50;48.00
3256;DHT22;1640;48.504;9.224;2023-07-24T04:49:55;19.50;48.00
3256;DHT22;1640;48.504;9.224;2023-07-24T04:52:22;19.40;47.50
3256;DHT22;1640;48.504;9.224;2023-07-24T04:54:51;19.40;46.30
3256;DHT22;1640;48.504;9.224;2023-07-24T04:57:19;19.40;45.90
3256;DHT22;1640;48.504;9.224;2023-07-24T04:59:46;19.40;45.60
3256;DHT22;1640;48.504;9.224;2023-07-24T05:02:14;19.40;48.00
3256;DHT22;1640;48.504;9.224;2023-07-24T05:04:41;19.30;45.30
3256;DHT22;1640;48.504;9.224;2023-07-24T05:07:09;19.20;43.20
3256;DHT22;1640;48.504;9.224;2023-07-24T05:09:36;19.20;42.60
3256;DHT22;1640;48.504;9.224;2023-07-24T05:12:06;19.30;41.90
3256;DHT22;1640;48.504;9.224;2023-07-24T05:14:34;19.30;44.90
3256;DHT22;1640;48.504;9.224;2023-07-24T05:17:01;19.40;46.00
3256;DHT22;1640;48.504;9.224;2023-07-24T05:19:28;19.50;47.10
3256;DHT22;1640;48.504;9.224;2023-07-24T05:21:56;19.50;47.10
3256;DHT22;1640;48.504;9.224;2023-07-24T05:24:25;19.60;47.80
3256;DHT22;1640;48.504;9.224;2023-07-24T05:26:57;19.70;49.10
3256;DHT22;1640;48.504;9.224;2023-07-24T05:29:39;19.90;50.90
3256;DHT22;1640;48.504;9.224;2023-07-24T05:32:07;20.10;56.20
3256;DHT22;1640;48.504;9.224;2023-07-24T05:34:35;20.20;56.70
3256;DHT22;1640;48.504;9.224;2023-07-24T05:37:03;20.10;56.70
3256;DHT22;1640;48.504;9.224;2023-07-24T05:39:30;20.10;58.50
3256;DHT22;1640;48.504;9.224;2023-07-24T05:41:58;20.10;58.20
3256;DHT22;1640;48.504;9.224;2023-07-24T05:44:25;20.10;58.40
3256;DHT22;1640;48.504;9.224;2023-07-24T05:46:54;19.90;58.90
3256;DHT22;1640;48.504;9.224;2023-07-24T05:49:22;19.90;57.30
3256;DHT22;1640;48.504;9.224;2023-07-24T05:51:49;20.00;55.20
3256;DHT22;1640;48.504;9.224;2023-07-24T05:54:18;19.90;57.50
3256;DHT22;1640;48.504;9.224;2023-07-24T05:56:45;19.70;54.00
3256;DHT22;1640;48.504;9.224;2023-07-24T05:59:13;19.60;52.70
3256;DHT22;1640;48.504;9.224;2023-07-24T06:01:41;19.60;50.90
3256;DHT22;1640;48.504;9.224;2023-07-24T06:04:09;19.50;48.50
3256;DHT22;1640;48.504;9.224;2023-07-24T06:06:37;19.50;45.70
3256;DHT22;1640;48.504;9.224;2023-07-24T06:09:04;19.60;45.60
3256;DHT22;1640;48.504;9.224;2023-07-24T06:11:32;19.60;44.80
3256;DHT22;1640;48.504;9.224;2023-07-24T06:13:59;19.70;44.50
3256;DHT22;1640;48.504;9.224;2023-07-24T06:16:26;19.80;45.50
3256;DHT22;1640;48.504;9.224;2023-07-24T06:18:54;19.90;46.40
3256;DHT22;1640;48.504;9.224;2023-07-24T06:21:23;20.00;47.40
3256;DHT22;1640;48.504;9.224;2023-07-24T06:23:50;20.10;49.50
3256;DHT22;1640;48.504;9.224;2023-07-24T06:26:18;20.20;50.50
3256;DHT22;1640;48.504;9.224;2023-07-24T06:28:45;20.30;48.70
3256;DHT22;1640;48.504;9.224;2023-07-24T06:31:13;20.40;48.90
3256;DHT22;1640;48.504;9.224;2023-07-24T06:33:40;20.50;51.00
3256;DHT22;1640;48.504;9.224;2023-07-24T06:36:09;20.70;50.60
3256;DHT22;1640;48.504;9.224;2023-07-24T06:38:38;20.80;55.10
3256;DHT22;1640;48.504;9.224;2023-07-24T06:41:05;20.70;54.70
3256;DHT22;1640;48.504;9.224;2023-07-24T06:43:33;20.80;54.70
3256;DHT22;1640;48.504;9.224;2023-07-24T06:46:01;21.00;59.20
3256;DHT22;1640;48.504;9.224;2023-07-24T06:48:28;21.10;60.00
3256;DHT22;1640;48.504;9.224;2023-07-24T06:50:56;21.20;59.90
3256;DHT22;1640;48.504;9.224;2023-07-24T06:53:23;21.40;60.30
3256;DHT22;1640;48.504;9.224;2023-07-24T06:55:52;21.50;61.00
3256;DHT22;1640;48.504;9.224;2023-07-24T06:58:19;21.90;62.60
3256;DHT22;1640;48.504;9.224;2023-07-24T07:00:47;22.20;64.50
3256;DHT22;1640;48.504;9.224;2023-07-24T07:03:14;22.30;66.00
3256;DHT22;1640;48.504;9.224;2023-07-24T07:05:41;22.60;67.30
3256;DHT22;1640;48.504;9.224;2023-07-24T07:08:09;22.40;66.60
3256;DHT22;1640;48.504;9.224;2023-07-24T07:10:36;22.60;66.70
3256;DHT22;1640;48.504;9.224;2023-07-24T07:13:05;22.50;67.00
3256;DHT22;1640;48.504;9.224;2023-07-24T07:15:32;22.70;67.00
3256;DHT22;1640;48.504;9.224;2023-07-24T07:18:00;22.60;67.60
3256;DHT22;1640;48.504;9.224;2023-07-24T07:20:27;22.70;67.00
3256;DHT22;1640;48.504;9.224;2023-07-24T07:22:55;22.70;68.20
3256;DHT22;1640;48.504;9.224;2023-07-24T07:25:22;22.90;68.20
3256;DHT22;1640;48.504;9.224;2023-07-24T07:27:50;22.80;68.60
3256;DHT22;1640;48.504;9.224;2023-07-24T07:30:18;22.90;68.50
3256;DHT22;1640;48.504;9.224;2023-07-24T07:32:46;23.10;68.80
3256;DHT22;1640;48.504;9.224;2023-07-24T07:35:14;23.30;68.60
3256;DHT22;1640;48.504;9.224;2023-07-24T07:37:42;23.40;68.90
3256;DHT22;1640;48.504;9.224;2023-07-24T07:40:10;23.80;68.90
3256;DHT22;1640;48.504;9.224;2023-07-24T07:42:37;23.80;68.90
3256;DHT22;1640;48.504;9.224;2023-07-24T07:45:06;24.20;68.80
3256;DHT22;1640;48.504;9.224;2023-07-24T07:47:35;24.60;68.80
3256;DHT22;1640;48.504;9.224;2023-07-24T07:50:02;24.80;68.80
3256;DHT22;1640;48.504;9.224;2023-07-24T07:52:30;25.00;68.60
3256;DHT22;1640;48.504;9.224;2023-07-24T07:54:57;25.00;68.50
3256;DHT22;1640;48.504;9.224;2023-07-24T07:57:25;25.00;68.80
3256;DHT22;1640;48.504;9.224;2023-07-24T07:59:52;24.70;68.60
3256;DHT22;1640;48.504;9.224;2023-07-24T08:02:20;24.60;68.90
3256;DHT22;1640;48.504;9.224;2023-07-24T08:04:49;24.30;69.00
3256;DHT22;1640;48.504;9.224;2023-07-24T08:07:16;24.10;69.20
3256;DHT22;1640;48.504;9.224;2023-07-24T08:09:45;24.00;69.00
3256;DHT22;1640;48.504;9.224;2023-07-24T08:12:13;24.00;68.60
3256;DHT22;1640;48.504;9.224;2023-07-24T08:14:40;24.10;69.20
3256;DHT22;1640;48.504;9.224;2023-07-24T08:17:08;24.10;67.90
3256;DHT22;1640;48.504;9.224;2023-07-24T08:19:35;24.30;67.80
3256;DHT22;1640;48.504;9.224;2023-07-24T08:22:04;24.40;67.90
3256;DHT22;1640;48.504;9.224;2023-07-24T08:24:34;24.50;66.90
3256;DHT22;1640;48.504;9.224;2023-07-24T08:27:01;24.50;67.20
3256;DHT22;1640;48.504;9.224;2023-07-24T08:29:29;24.40;67.20
3256;DHT22;1640;48.504;9.224;2023-07-24T08:31:56;24.40;67.90
3256;DHT22;1640;48.504;9.224;2023-07-24T08:34:23;24.20;68.30
3256;DHT22;1640;48.504;9.224;2023-07-24T08:36:51;24.00;68.90
3256;DHT22;1640;48.504;9.224;2023-07-24T08:39:20;24.00;69.00
3256;DHT22;1640;48.504;9.224;2023-07-24T08:41:47;24.10;69.00
3256;DHT22;1640;48.504;9.224;2023-07-24T08:44:15;24.30;69.00
3256;DHT22;1640;48.504;9.224;2023-07-24T08:46:43;24.20;69.00
3256;DHT22;1640;48.504;9.224;2023-07-24T08:49:12;24.10;68.90
3256;DHT22;1640;48.504;9.224;2023-07-24T08:51:40;24.00;68.60
3256;DHT22;1640;48.504;9.224;2023-07-24T08:54:08;23.90;67.80
3256;DHT22;1640;48.504;9.224;2023-07-24T08:56:38;24.00;67.50
3256;DHT22;1640;48.504;9.224;2023-07-24T08:59:06;24.10;65.50
3256;DHT22;1640;48.504;9.224;2023-07-24T09:01:34;24.10;63.40
3256;DHT22;1640;48.504;9.224;2023-07-24T09:04:01;24.10;64.60
3256;DHT22;1640;48.504;9.224;2023-07-24T09:06:29;24.00;62.00
3256;DHT22;1640;48.504;9.224;2023-07-24T09:08:56;23.90;64.00
3256;DHT22;1640;48.504;9.224;2023-07-24T09:11:24;24.00;60.60
3256;DHT22;1640;48.504;9.224;2023-07-24T09:13:53;24.20;65.20
3256;DHT22;1640;48.504;9.224;2023-07-24T09:16:21;24.40;66.50
3256;DHT22;1640;48.504;9.224;2023-07-24T09:18:50;24.60;66.20
3256;DHT22;1640;48.504;9.224;2023-07-24T09:21:27;24.60;65.90
3256;DHT22;1640;48.504;9.224;2023-07-24T09:23:55;24.80;66.30
3256;DHT22;1640;48.504;9.224;2023-07-24T09:26:23;24.80;66.30
3256;DHT22;1640;48.504;9.224;2023-07-24T09:28:53;24.80;67.00
3256;DHT22;1640;48.504;9.224;2023-07-24T09:31:21;24.70;64.20
3256;DHT22;1640;48.504;9.224;2023-07-24T09:33:49;24.70;63.20
3256;DHT22;1640;48.504;9.224;2023-07-24T09:36:16;24.70;63.90
3256;DHT22;1640;48.504;9.224;2023-07-24T09:38:44;24.70;64.60
3256;DHT22;1640;48.504;9.224;2023-07-24T09:41:12;24.60;63.70
3256;DHT22;1640;48.504;9.224;2023-07-24T09:43:42;24.30;64.00
3256;DHT22;1640;48.504;9.224;2023-07-24T09:46:11;24.40;58.60
3256;DHT22;1640;48.504;9.224;2023-07-24T09:48:38;24.50;61.40
3256;DHT22;1640;48.504;9.224;2023-07-24T09:51:08;24.30;59.90
3256;DHT22;1640;48.504;9.224;2023-07-24T09:53:39;24.10;62.70
3256;DHT22;1640;48.504;9.224;2023-07-24T09:56:08;24.10;60.90
3256;DHT22;1640;48.504;9.224;2023-07-24T09:58:37;23.90;60.10
3256;DHT22;1640;48.504;9.224;2023-07-24T10:01:06;23.80;56.90
3256;DHT22;1640;48.504;9.224;2023-07-24T10:03:38;23.70;54.80
3256;DHT22;1640;48.504;9.224;2023-07-24T10:06:06;23.60;48.90
3256;DHT22;1640;48.504;9.224;2023-07-24T10:08:36;23.30;49.80
3256;DHT22;1640;48.504;9.224;2023-07-24T10:11:05;23.10;32.70
3256;DHT22;1640;48.504;9.224;2023-07-24T10:13:33;23.00;28.90
3256;DHT22;1640;48.504;9.224;2023-07-24T10:16:03;22.80;26.20
3256;DHT22;1640;48.504;9.224;2023-07-24T10:18:35;22.60;13.00
3256;DHT22;1640;48.504;9.224;2023-07-24T10:21:09;22.50;7.10
3256;DHT22;1640;48.504;9.224;2023-07-24T10:23:41;22.40;1.00
3256;DHT22;1640;48.504;9.224;2023-07-24T10:26:09;22.40;99.90
3256;DHT22;1640;48.504;9.224;2023-07-24T10:28:38;22.20;99.90
3256;DHT22;1640;48.504;9.224;2023-07-24T10:31:07;22.10;99.90
3256;DHT22;1640;48.504;9.224;2023-07-24T10:33:44;22.00;99.90
3256;DHT22;1640;48.504;9.224;2023-07-24T10:36:12;21.80;99.90
3256;DHT22;1640;48.504;9.224;2023-07-24T10:38:45;21.60;99.90
3256;DHT22;1640;48.504;9.224;2023-07-24T10:41:13;21.40;99.90
3256;DHT22;1640;48.504;9.224;2023-07-24T10:43:43;21.10;99.90
3256;DHT22;1640;48.504;9.224;2023-07-24T10:46:11;20.90;99.90
3256;DHT22;1640;48.504;9.224;2023-07-24T10:48:44;20.60;99.90
3256;DHT22;1640;48.504;9.224;2023-07-24T10:51:12;20.40;99.90
3256;DHT22;1640;48.504;9.224;2023-07-24T10:53:44;20.30;99.90
3256;DHT22;1640;48.504;9.224;2023-07-24T10:56:12;20.20;99.90
3256;DHT22;1640;48.504;9.224;2023-07-24T10:58:40;20.00;99.90
3256;DHT22;1640;48.504;9.224;2023-07-24T11:01:08;20.00;99.90
3256;DHT22;1640;48.504;9.224;2023-07-24T11:03:37;20.10;99.90
3256;DHT22;1640;48.504;9.224;2023-07-24T11:06:12;20.10;99.90
3256;DHT22;1640;48.504;9.224;2023-07-24T11:08:40;20.00;99.90
3256;DHT22;1640;48.504;9.224;2023-07-24T11:11:08;20.00;99.90
3256;DHT22;1640;48.504;9.224;2023-07-24T11:13:38;20.10;99.90
3256;DHT22;1640;48.504;9.224;2023-07-24T11:16:06;20.00;99.90
3256;DHT22;1640;48.504;9.224;2023-07-24T11:18:44;20.00;99.90
3256;DHT22;1640;48.504;9.224;2023-07-24T11:21:14;20.00;99.90
3256;DHT22;1640;48.504;9.224;2023-07-24T11:23:49;20.00;99.90
3256;DHT22;1640;48.504;9.224;2023-07-24T11:26:19;20.00;99.90
3256;DHT22;1640;48.504;9.224;2023-07-24T11:28:48;20.00;99.90
3256;DHT22;1640;48.504;9.224;2023-07-24T11:31:15;20.40;99.90
3256;DHT22;1640;48.504;9.224;2023-07-24T11:33:46;20.90;99.90
3256;DHT22;1640;48.504;9.224;2023-07-24T11:36:16;21.50;99.90
3256;DHT22;1640;48.504;9.224;2023-07-24T11:38:45;22.20;99.90
3256;DHT22;1640;48.504;9.224;2023-07-24T11:41:12;22.50;99.90
3256;DHT22;1640;48.504;9.224;2023-07-24T11:43:45;22.70;99.90
3256;DHT22;1640;48.504;9.224;2023-07-24T11:46:23;23.10;99.90
3256;DHT22;1640;48.504;9.224;2023-07-24T11:48:51;23.50;99.90
3256;DHT22;1640;48.504;9.224;2023-07-24T11:51:24;23.60;18.10
3256;DHT22;1640;48.504;9.224;2023-07-24T11:53:52;23.40;16.30
3256;DHT22;1640;48.504;9.224;2023-07-24T11:56:20;23.40;16.00
3256;DHT22;1640;48.504;9.224;2023-07-24T11:58:48;23.60;20.50
3256;DHT22;1640;48.504;9.224;2023-07-24T12:01:15;23.70;30.80
3256;DHT22;1640;48.504;9.224;2023-07-24T12:03:43;23.80;36.20
3256;DHT22;1640;48.504;9.224;2023-07-24T12:06:14;24.10;31.20
3256;DHT22;1640;48.504;9.224;2023-07-24T12:08:44;24.40;31.20
3256;DHT22;1640;48.504;9.224;2023-07-24T12:11:20;24.70;43.00
3256;DHT22;1640;48.504;9.224;2023-07-24T12:13:49;24.80;49.50
3256;DHT22;1640;48.504;9.224;2023-07-24T12:16:16;24.90;52.50
3256;DHT22;1640;48.504;9.224;2023-07-24T12:18:44;25.00;53.30
3256;DHT22;1640;48.504;9.224;2023-07-24T12:21:11;24.90;55.60
3256;DHT22;1640;48.504;9.224;2023-07-24T12:23:39;25.10;54.60
3256;DHT22;1640;48.504;9.224;2023-07-24T12:26:08;25.40;60.60
3256;DHT22;1640;48.504;9.224;2023-07-24T12:28:35;25.20;64.70
3256;DHT22;1640;48.504;9.224;2023-07-24T12:31:02;25.40;64.90
3256;DHT22;1640;48.504;9.224;2023-07-24T12:33:30;25.70;66.50
3256;DHT22;1640;48.504;9.224;2023-07-24T12:35:58;25.90;68.30
3256;DHT22;1640;48.504;9.224;2023-07-24T12:38:25;25.90;68.50
3256;DHT22;1640;48.504;9.224;2023-07-24T12:40:52;25.50;68.80
3256;DHT22;1640;48.504;9.224;2023-07-24T12:43:21;25.80;68.00
3256;DHT22;1640;48.504;9.224;2023-07-24T12:45:49;26.00;67.60
3256;DHT22;1640;48.504;9.224;2023-07-24T12:48:19;26.00;68.60
3256;DHT22;1640;48.504;9.224;2023-07-24T12:50:47;26.10;68.90
3256;DHT22;1640;48.504;9.224;2023-07-24T12:53:14;26.20;68.90
3256;DHT22;1640;48.504;9.224;2023-07-24T12:55:42;26.30;69.20
3256;DHT22;1640;48.504;9.224;2023-07-24T12:58:09;26.20;68.90
3256;DHT22;1640;48.504;9.224;2023-07-24T13:00:38;26.20;68.90
3256;DHT22;1640;48.504;9.224;2023-07-24T13:03:06;26.40;68.20
3256;DHT22;1640;48.504;9.224;2023-07-24T13:05:33;26.40;68.60
3256;DHT22;1640;48.504;9.224;2023-07-24T13:08:01;26.40;67.60
3256;DHT22;1640;48.504;9.224;2023-07-24T13:10:28;26.40;67.60
3256;DHT22;1640;48.504;9.224;2023-07-24T13:12:58;26.40;67.30
3256;DHT22;1640;48.504;9.224;2023-07-24T13:15:27;26.30;68.00
3256;DHT22;1640;48.504;9.224;2023-07-24T13:17:57;26.20;66.90
3256;DHT22;1640;48.504;9.224;2023-07-24T13:20:24;26.00;66.30
3256;DHT22;1640;48.504;9.224;2023-07-24T13:22:55;25.80;66.70
3256;DHT22;1640;48.504;9.224;2023-07-24T13:25:23;25.60;66.90
3256;DHT22;1640;48.504;9.224;2023-07-24T13:27:51;25.40;67.30
3256;DHT22;1640;48.504;9.224;2023-07-24T13:30:23;25.20;68.50
3256;DHT22;1640;48.504;9.224;2023-07-24T13:32:51;25.30;68.20
3256;DHT22;1640;48.504;9.224;2023-07-24T13:35:20;25.00;68.50
3256;DHT22;1640;48.504;9.224;2023-07-24T13:37:47;24.60;69.30
3256;DHT22;1640;48.504;9.224;2023-07-24T13:40:15;24.30;69.50
3256;DHT22;1640;48.504;9.224;2023-07-24T13:42:42;24.00;69.50
3256;DHT22;1640;48.504;9.224;2023-07-24T13:45:10;23.90;69.20
3256;DHT22;1640;48.504;9.224;2023-07-24T13:47:40;23.80;68.80
3256;DHT22;1640;48.504;9.224;2023-07-24T13:50:08;23.70;68.00
3256;DHT22;1640;48.504;9.224;2023-07-24T13:52:37;23.80;67.60
3256;DHT22;1640;48.504;9.224;2023-07-24T13:55:05;23.80;67.30
3256;DHT22;1640;48.504;9.224;2023-07-24T13:57:32;24.00;67.80
3256;DHT22;1640;48.504;9.224;2023-07-24T14:00:02;24.00;66.60
3256;DHT22;1640;48.504;9.224;2023-07-24T14:02:29;24.10;66.30
3256;DHT22;1640;48.504;9.224;2023-07-24T14:04:57;24.10;65.70
3256;DHT22;1640;48.504;9.224;2023-07-24T14:07:24;24.20;65.70
3256;DHT22;1640;48.504;9.224;2023-07-24T14:09:53;24.10;64.50
3256;DHT22;1640;48.504;9.224;2023-07-24T14:12:21;24.00;64.20
3256;DHT22;1640;48.504;9.224;2023-07-24T14:14:48;23.60;63.00
3256;DHT22;1640;48.504;9.224;2023-07-24T14:17:15;23.40;60.60
3256;DHT22;1640;48.504;9.224;2023-07-24T14:19:45;23.10;58.20
3256;DHT22;1640;48.504;9.224;2023-07-24T14:22:12;22.90;46.80
3256;DHT22;1640;48.504;9.224;2023-07-24T14:24:40;22.70;41.50
3256;DHT22;1640;48.504;9.224;2023-07-24T14:27:09;22.40;26.80
3256;DHT22;1640;48.504;9.224;2023-07-24T14:29:36;22.30;26.50
3256;DHT22;1640;48.504;9.224;2023-07-24T14:32:05;22.10;15.00
3256;DHT22;1640;48.504;9.224;2023-07-24T14:34:33;21.90;16.60
3256;DHT22;1640;48.504;9.224;2023-07-24T14:37:00;21.70;9.30
3256;DHT22;1640;48.504;9.224;2023-07-24T14:39:27;21.60;10.40
3256;DHT22;1640;48.504;9.224;2023-07-24T14:41:55;21.60;4.90
3256;DHT22;1640;48.504;9.224;2023-07-24T14:44:24;21.40;99.90
3256;DHT22;1640;48.504;9.224;2023-07-24T14:46:52;21.20;99.90
3256;DHT22;1640;48.504;9.224;2023-07-24T14:49:19;21.20;99.90
3256;DHT22;1640;48.504;9.224;2023-07-24T14:51:47;20.90;99.90
3256;DHT22;1640;48.504;9.224;2023-07-24T14:54:14;20.90;99.90
3256;DHT22;1640;48.504;9.224;2023-07-24T14:56:44;20.80;99.90
3256;DHT22;1640;48.504;9.224;2023-07-24T14:59:12;21.00;99.90
3256;DHT22;1640;48.504;9.224;2023-07-24T15:01:41;21.20;99.90
3256;DHT22;1640;48.504;9.224;2023-07-24T15:04:08;21.40;99.90
3256;DHT22;1640;48.504;9.224;2023-07-24T15:06:36;21.60;99.90
3256;DHT22;1640;48.504;9.224;2023-07-24T15:09:03;21.50;99.90
3256;DHT22;1640;48.504;9.224;2023-07-24T15:11:31;21.40;99.90
3256;DHT22;1640;48.504;9.224;2023-07-24T15:13:58;21.00;99.90
3256;DHT22;1640;48.504;9.224;2023-07-24T15:16:26;21.10;99.90
3256;DHT22;1640;48.504;9.224;2023-07-24T15:18:54;21.10;99.90
3256;DHT22;1640;48.504;9.224;2023-07-24T15:21:22;21.20;99.90
3256;DHT22;1640;48.504;9.224;2023-07-24T15:23:49;21.40;99.90
3256;DHT22;1640;48.504;9.224;2023-07-24T15:26:18;21.60;99.90
3256;DHT22;1640;48.504;9.224;2023-07-24T15:28:45;21.90;99.90
3256;DHT22;1640;48.504;9.224;2023-07-24T15:31:13;22.10;99.90
3256;DHT22;1640;48.504;9.224;2023-07-24T15:33:40;22.20;99.90
3256;DHT22;1640;48.504;9.224;2023-07-24T15:36:09;22.30;99.90
3256;DHT22;1640;48.504;9.224;2023-07-24T15:38:37;22.40;99.90
3256;DHT22;1640;48.504;9.224;2023-07-24T15:41:04;22.70;0.60
3256;DHT22;1640;48.504;9.224;2023-07-24T15:43:34;23.10;4.20
3256;DHT22;1640;48.504;9.224;2023-07-24T15:46:02;23.30;8.60
3256;DHT22;1640;48.504;9.224;2023-07-24T15:48:29;23.30;17.40
3256;DHT22;1640;48.504;9.224;2023-07-24T15:50:57;23.40;13.30
3256;DHT22;1640;48.504;9.224;2023-07-24T15:53:26;23.60;18.60
3256;DHT22;1640;48.504;9.224;2023-07-24T15:55:53;23.60;24.20
3256;DHT22;1640;48.504;9.224;2023-07-24T15:58:20;23.90;27.20
3256;DHT22;1640;48.504;9.224;2023-07-24T16:00:48;25.00;47.40
3256;DHT22;1640;48.504;9.224;2023-07-24T16:03:15;25.30;56.70
3256;DHT22;1640;48.504;9.224;2023-07-24T16:05:43;25.40;58.10
3256;DHT22;1640;48.504;9.224;2023-07-24T16:08:10;25.10;57.40